Terminal Aerodrome Forecast
Issued by NWS

Current Version | Previous Version | Graphics & Text | Print | Product List | Glossary On
Versions: 1 2 3 4 5 6 7 8 9 10 11 12 13 14 15 16 17 18 19 20 21 22 23 24 25 26 27 28 29 30 31 32 33 34 35 36 37 38
000
FTUS41 KRNK 281720
TAFLWB
TAF
KLWB 281720Z 2818/2918 28010G20KT P6SM BKN050
     FM282200 29006KT P6SM SCT040
     FM290200 VRB03KT P6SM SKC
     FM291700 22006KT P6SM SCT120=

USA.gov is the U.S. government's official web portal to all federal, state and local government web resources and services.